Time;durP1;ratioP1;P1;durP2;ratioP2;P2;SDS_P1;SDS_P2;PMS_P1;PMS_P2;Temp;Humidity;BMP_temperature;BMP_pressure;BME280_temperature;BME280_humidity;BME280_pressure;Samples;Min_cycle;Max_cycle;Signal;HPM_P1;HPM_P2
2021/06/11 00:03:14;;;;;;;9.65;5.35;;;;;;;13.60;70.50;99142.22;4134184;84;21036;-77
2021/06/11 00:09:17;;;;;;;10.18;5.45;;;;;;;13.64;71.71;99129.85;4144078;84;21608;-76
2021/06/11 00:15:19;;;;;;;9.03;5.67;;;;;;;13.92;71.66;99123.75;4124490;84;21047;-77
2021/06/11 00:21:20;;;;;;;10.10;6.42;;;;;;;14.13;71.62;99132.00;4147026;84;21052;-77
2021/06/11 00:27:21;;;;;;;10.72;6.30;;;;;;;14.11;71.51;99132.19;4147845;84;21076;-77
2021/06/11 00:33:23;;;;;;;12.13;6.47;;;;;;;14.01;71.26;99141.25;4137428;84;21089;-77
2021/06/11 00:39:24;;;;;;;8.25;5.28;;;;;;;13.88;71.64;99137.31;4139473;84;21032;-77
2021/06/11 00:45:26;;;;;;;11.48;6.42;;;;;;;13.67;71.75;99135.94;4137391;84;21579;-76
2021/06/11 00:51:28;;;;;;;10.90;6.42;;;;;;;13.70;71.86;99128.28;4153157;84;21576;-77
2021/06/11 00:57:30;;;;;;;12.73;5.92;;;;;;;13.36;72.37;99122.94;4140260;84;21095;-76
2021/06/11 01:03:32;;;;;;;10.40;6.53;;;;;;;13.49;72.93;99124.12;4121839;84;21059;-77
2021/06/11 01:09:37;;;;;;;11.30;6.22;;;;;;;13.54;72.82;99119.61;4139834;84;21040;-77
2021/06/11 01:15:39;;;;;;;13.45;6.40;;;;;;;13.54;72.87;99114.91;4141046;84;21071;-77
2021/06/11 01:21:55;;;;;;;14.43;6.30;;;;;;;13.43;73.28;99120.19;4134062;84;21516;-77
2021/06/11 01:27:57;;;;;;;8.15;5.37;;;;;;;13.57;73.33;99112.75;4139528;84;21084;-77
2021/06/11 01:34:05;;;;;;;11.53;6.55;;;;;;;13.67;73.17;99118.06;4128180;84;21562;-77
2021/06/11 01:40:11;;;;;;;15.03;6.55;;;;;;;13.64;73.22;99109.98;4128299;84;21071;-77
2021/06/11 01:46:16;;;;;;;10.03;6.60;;;;;;;13.67;73.16;99113.33;4130324;84;21065;-76
2021/06/11 01:52:19;;;;;;;18.35;7.05;;;;;;;13.54;72.58;99112.16;4137966;84;21032;-77
2021/06/11 01:58:20;;;;;;;17.30;7.58;;;;;;;13.31;73.44;99116.44;4143082;84;21055;-77
2021/06/11 02:04:22;;;;;;;12.93;7.20;;;;;;;13.40;73.47;99105.84;4143019;84;21626;-77
2021/06/11 02:10:25;;;;;;;15.15;6.80;;;;;;;13.41;73.61;99110.95;4130653;84;21071;-77
2021/06/11 02:16:29;;;;;;;15.38;5.90;;;;;;;13.44;73.75;99114.88;4143323;84;21124;-77
2021/06/11 02:22:31;;;;;;;14.03;7.05;;;;;;;13.22;73.65;99115.42;4128102;84;21063;-77
2021/06/11 02:28:32;;;;;;;9.45;6.67;;;;;;;13.18;73.64;99114.64;4134070;84;21544;-77
2021/06/11 02:34:34;;;;;;;9.75;6.10;;;;;;;12.95;73.75;99113.36;4137983;84;21092;-77
2021/06/11 02:40:36;;;;;;;11.63;7.00;;;;;;;12.80;74.08;99112.52;4151394;84;21119;-77
2021/06/11 02:46:54;;;;;;;11.75;6.78;;;;;;;12.51;74.20;99120.44;4144789;84;21109;-77
2021/06/11 02:53:00;;;;;;;11.70;7.90;;;;;;;12.56;75.14;99122.78;4137667;84;21091;-77
2021/06/11 02:59:06;;;;;;;15.20;6.35;;;;;;;12.58;74.64;99120.45;4138256;84;21124;-78
2021/06/11 03:05:11;;;;;;;8.25;5.78;;;;;;;12.32;75.37;99125.59;4129115;84;21935;-77
2021/06/11 03:11:19;;;;;;;10.90;6.05;;;;;;;12.28;75.98;99124.80;4115063;84;31272;-78
2021/06/11 03:17:24;;;;;;;11.25;6.37;;;;;;;12.64;76.09;99123.83;4097079;85;21156;-77
2021/06/11 03:23:40;;;;;;;10.33;6.93;;;;;;;12.92;75.84;99125.13;4080840;86;21076;-78
2021/06/11 03:29:47;;;;;;;10.95;6.35;;;;;;;12.77;75.31;99128.97;4090136;85;21054;-78
2021/06/11 03:35:57;;;;;;;8.80;6.70;;;;;;;12.50;75.68;99132.56;4091157;85;21068;-77
2021/06/11 03:41:59;;;;;;;9.00;6.70;;;;;;;12.38;76.04;99132.90;4096688;85;21037;-77
2021/06/11 03:48:03;;;;;;;11.05;5.90;;;;;;;12.44;76.37;99136.28;4095104;85;22297;-78
2021/06/11 03:54:08;;;;;;;13.62;6.05;;;;;;;12.65;76.85;99136.38;4106585;84;21121;-77
2021/06/11 04:00:13;;;;;;;10.50;6.20;;;;;;;12.96;76.58;99122.59;4120243;84;21103;-77
2021/06/11 04:06:19;;;;;;;13.08;6.62;;;;;;;13.16;76.58;99131.30;4119528;84;21047;-78
2021/06/11 04:12:43;;;;;;;16.97;5.90;;;;;;;13.42;76.54;99131.00;4084752;85;21060;-77
2021/06/11 04:18:52;;;;;;;10.15;5.50;;;;;;;13.65;76.33;99129.45;4127226;84;21022;-77
2021/06/11 04:25:09;;;;;;;11.80;5.67;;;;;;;13.85;76.11;99139.48;4093115;84;21045;-77
2021/06/11 04:31:17;;;;;;;13.50;5.87;;;;;;;13.99;75.90;99133.39;4110353;84;20984;-76
2021/06/11 04:37:58;;;;;;;12.58;5.75;;;;;;;14.10;75.81;99137.51;4089418;84;21131;-77
2021/06/11 04:43:44;;;;;;;12.55;6.80;;;;;;;14.21;75.70;99132.78;4113566;84;21087;-77
2021/06/11 04:49:55;;;;;;;13.75;7.87;;;;;;;14.36;75.66;99141.84;4121786;84;21659;-78
2021/06/11 04:55:59;;;;;;;12.10;6.60;;;;;;;14.48;75.62;99129.81;4067578;84;21562;-77
2021/06/11 05:02:00;;;;;;;11.22;7.03;;;;;;;14.64;75.36;99127.42;4059304;85;21066;-81
2021/06/11 05:08:02;;;;;;;7.90;6.20;;;;;;;14.78;75.44;99132.09;4046893;86;20998;-77
2021/06/11 05:14:03;;;;;;;9.65;6.40;;;;;;;14.95;75.44;99135.36;4034866;86;21507;-77
2021/06/11 05:20:06;;;;;;;16.65;7.22;;;;;;;15.18;75.46;99134.27;4054028;85;21069;-77
2021/06/11 05:26:07;;;;;;;14.35;7.78;;;;;;;15.38;75.40;99137.53;4062588;85;21065;-77
2021/06/11 05:32:09;;;;;;;10.08;6.25;;;;;;;15.67;75.48;99135.38;4048228;86;21053;-78
2021/06/11 05:38:12;;;;;;;12.15;7.62;;;;;;;15.98;75.40;99136.31;4051040;86;21117;-77
2021/06/11 05:44:14;;;;;;;19.50;9.13;;;;;;;16.24;75.32;99139.85;4036488;86;21839;-77
2021/06/11 05:50:16;;;;;;;19.27;8.88;;;;;;;16.44;75.08;99146.36;4045104;86;21090;-77
2021/06/11 05:56:19;;;;;;;16.02;8.33;;;;;;;16.63;75.01;99149.33;4109552;84;21077;-76
2021/06/11 06:02:22;;;;;;;14.30;9.30;;;;;;;16.82;74.79;99145.96;4104001;85;21020;-77
2021/06/11 06:08:23;;;;;;;17.82;8.53;;;;;;;17.00;74.56;99145.76;4121443;84;21060;-77
2021/06/11 06:14:25;;;;;;;18.50;8.53;;;;;;;17.18;74.26;99144.92;4085843;84;21101;-78
2021/06/11 06:20:26;;;;;;;29.67;8.25;;;;;;;17.36;74.09;99147.45;4113379;84;21072;-76
2021/06/11 06:26:28;;;;;;;13.53;8.08;;;;;;;17.51;73.79;99146.87;4124554;85;21552;-77
2021/06/11 06:32:30;;;;;;;24.12;8.68;;;;;;;17.72;73.75;99145.19;4118115;85;21056;-77
2021/06/11 06:38:32;;;;;;;12.80;7.65;;;;;;;17.97;73.50;99151.12;4136056;85;22212;-77
2021/06/11 06:44:33;;;;;;;10.32;6.95;;;;;;;18.18;72.99;99147.98;4107938;85;21060;-78
2021/06/11 06:50:36;;;;;;;10.43;6.85;;;;;;;18.45;72.95;99145.17;4106887;85;21080;-78
2021/06/11 06:56:37;;;;;;;12.18;8.15;;;;;;;18.82;72.67;99142.70;4132963;84;21108;-78
2021/06/11 07:02:39;;;;;;;11.70;9.00;;;;;;;19.42;72.00;99136.72;4114277;84;21096;-78
2021/06/11 07:08:41;;;;;;;10.30;7.05;;;;;;;20.23;70.87;99137.58;4092160;85;21068;-78
2021/06/11 07:14:43;;;;;;;13.62;7.08;;;;;;;20.98;70.32;99139.34;4126587;84;22341;-79
2021/06/11 07:20:45;;;;;;;15.20;8.08;;;;;;;21.76;68.88;99137.80;4125493;85;21589;-77
2021/06/11 07:26:47;;;;;;;12.55;7.37;;;;;;;22.46;67.47;99143.82;4112074;85;21092;-79
2021/06/11 07:32:48;;;;;;;15.63;8.88;;;;;;;22.92;65.73;99136.04;4109290;84;21052;-79
2021/06/11 07:38:50;;;;;;;12.75;8.93;;;;;;;23.08;64.86;99140.80;4128672;84;21033;-80
2021/06/11 07:44:52;;;;;;;11.08;5.83;;;;;;;23.32;63.52;99134.79;4134271;85;21145;-79
2021/06/11 07:50:54;;;;;;;11.43;6.05;;;;;;;23.51;63.15;99140.00;4132008;84;21503;-79
2021/06/11 07:56:55;;;;;;;11.53;9.65;;;;;;;23.56;62.52;99133.82;4094323;85;21100;-79
2021/06/11 08:03:00;;;;;;;11.43;5.75;;;;;;;23.64;61.33;99129.52;4092084;86;21790;-79
2021/06/11 08:09:01;;;;;;;13.80;5.75;;;;;;;23.77;60.80;99127.41;4100772;86;21077;-79
2021/06/11 08:15:05;;;;;;;9.80;6.92;;;;;;;23.73;59.23;99129.55;4102785;85;21054;-76
2021/06/11 08:21:07;;;;;;;9.20;6.53;;;;;;;23.74;58.83;99122.70;4098842;86;21024;-78
2021/06/11 08:27:08;;;;;;;10.78;5.65;;;;;;;23.73;57.85;99117.58;4102408;86;21084;-78
2021/06/11 08:33:10;;;;;;;10.00;5.80;;;;;;;23.66;58.04;99119.27;4090606;86;21062;-78
2021/06/11 08:39:11;;;;;;;10.95;5.37;;;;;;;23.79;57.55;99119.31;4097189;86;21576;-79
2021/06/11 08:45:14;;;;;;;8.38;6.22;;;;;;;23.81;56.95;99111.86;4102277;85;21065;-79
2021/06/11 08:51:15;;;;;;;7.12;4.25;;;;;;;23.80;56.46;99111.11;4085582;85;21049;-78
2021/06/11 08:57:21;;;;;;;10.78;5.25;;;;;;;23.78;56.38;99101.61;4090701;85;21018;-79
2021/06/11 09:03:41;;;;;;;7.25;4.65;;;;;;;23.85;55.91;99095.11;4087735;85;21078;-80
2021/06/11 09:09:50;;;;;;;5.93;4.10;;;;;;;23.87;55.43;99086.26;4082790;86;20998;-78
2021/06/11 09:15:51;;;;;;;6.42;4.35;;;;;;;24.01;54.41;99078.09;4098324;86;21073;-79
2021/06/11 09:22:01;;;;;;;8.63;4.55;;;;;;;24.24;53.80;99083.10;4071782;86;21069;-77
2021/06/11 09:28:10;;;;;;;7.90;4.80;;;;;;;24.42;53.29;99088.73;4089793;86;21081;-77
2021/06/11 09:34:28;;;;;;;6.70;4.42;;;;;;;24.13;52.37;99077.82;4089815;85;21057;-77
2021/06/11 09:40:31;;;;;;;6.20;4.25;;;;;;;24.36;51.49;99071.63;4094840;85;21335;-77
2021/06/11 09:46:46;;;;;;;9.40;4.78;;;;;;;24.48;51.88;99066.48;4095669;85;21053;-77
2021/06/11 09:53:04;;;;;;;5.60;4.37;;;;;;;24.68;51.28;99073.20;4098313;84;21595;-77
2021/06/11 09:59:06;;;;;;;6.87;4.00;;;;;;;24.31;51.03;99080.63;4120900;84;22221;-77
2021/06/11 10:05:09;;;;;;;6.30;3.77;;;;;;;24.17;50.95;99065.84;4132083;84;21059;-77
2021/06/11 10:11:14;;;;;;;12.23;3.70;;;;;;;24.27;50.63;99057.64;4122338;85;21061;-82
2021/06/11 10:17:15;;;;;;;5.78;3.52;;;;;;;24.75;49.60;99052.52;4119911;84;21009;-77
2021/06/11 10:23:22;;;;;;;5.65;3.65;;;;;;;24.64;49.50;99045.97;4039548;86;21557;-78
2021/06/11 10:29:52;;;;;;;3.45;3.15;;;;;;;24.41;49.53;99034.02;4010448;87;21523;-78
2021/06/11 10:36:36;;;;;;;4.42;3.45;;;;;;;24.15;49.04;99029.20;4017260;86;21033;-77
2021/06/11 10:42:51;;;;;;;4.17;2.67;;;;;;;23.86;49.42;99022.60;4102663;84;21379;-77
2021/06/11 10:49:06;;;;;;;6.05;3.02;;;;;;;23.78;49.58;99011.56;4118758;85;21115;-77
2021/06/11 10:55:25;;;;;;;5.83;2.80;;;;;;;23.86;49.31;99015.61;4120948;85;21121;-77
2021/06/11 11:01:29;;;;;;;3.15;2.72;;;;;;;23.99;49.53;99004.33;4124018;85;21652;-78
2021/06/11 11:07:32;;;;;;;4.42;3.27;;;;;;;24.34;49.04;98998.56;4112048;85;21579;-77
2021/06/11 11:13:36;;;;;;;5.78;2.52;;;;;;;24.46;47.95;98999.80;4127751;85;21040;-77
2021/06/11 11:19:51;;;;;;;3.72;2.70;;;;;;;24.22;47.95;98992.52;4108127;85;21108;-77
2021/06/11 11:25:54;;;;;;;6.58;3.60;;;;;;;23.82;47.42;98991.84;4109910;85;21022;-77
2021/06/11 11:31:55;;;;;;;6.25;3.02;;;;;;;23.42;47.89;98992.52;4109118;85;21037;-78
2021/06/11 11:37:57;;;;;;;7.08;3.30;;;;;;;23.33;48.17;98993.89;4097943;85;21017;-77
2021/06/11 11:44:02;;;;;;;5.42;3.62;;;;;;;23.40;48.80;98991.58;4103958;84;21124;-77
2021/06/11 11:50:05;;;;;;;6.40;3.30;;;;;;;23.72;48.81;98982.67;4090136;84;21077;-77
2021/06/11 11:56:07;;;;;;;5.92;3.20;;;;;;;24.05;49.40;98985.68;4092034;85;21029;-78
2021/06/11 12:02:09;;;;;;;12.82;5.40;;;;;;;24.28;48.89;98992.05;4078050;85;21001;-79
2021/06/11 12:08:12;;;;;;;8.78;3.17;;;;;;;23.77;49.81;99011.41;3976886;86;21509;-78
2021/06/11 12:14:14;;;;;;;4.00;3.27;;;;;;;22.26;50.55;99020.63;3959395;87;21182;-78
2021/06/11 12:20:17;;;;;;;5.70;3.42;;;;;;;20.72;54.08;99042.47;4080821;84;20979;-77
2021/06/11 12:26:18;;;;;;;5.12;3.37;;;;;;;19.81;54.58;99046.34;4082301;86;21090;-78
2021/06/11 12:32:20;;;;;;;5.28;3.67;;;;;;;19.38;56.83;99046.58;4082023;86;21091;-77
2021/06/11 12:38:21;;;;;;;11.08;3.75;;;;;;;19.14;58.07;99038.80;4070520;86;21537;-78
2021/06/11 12:44:25;;;;;;;6.37;3.33;;;;;;;18.98;59.48;99052.62;4089462;86;21022;-77
2021/06/11 12:50:26;;;;;;;6.17;3.27;;;;;;;18.73;60.80;99046.20;4091951;85;21080;-77
2021/06/11 12:56:31;;;;;;;6.55;3.98;;;;;;;18.56;61.92;99028.73;4081599;85;21153;-77
2021/06/11 13:02:34;;;;;;;5.58;3.45;;;;;;;18.60;62.83;99021.11;4111017;85;21113;-77
2021/06/11 13:08:37;;;;;;;8.20;3.87;;;;;;;18.52;64.32;99020.31;4100987;85;22094;-79
2021/06/11 13:14:40;;;;;;;4.75;3.40;;;;;;;18.64;66.60;99009.36;4123741;84;21127;-77
2021/06/11 13:20:42;;;;;;;5.85;3.70;;;;;;;18.64;65.80;99010.75;4099895;85;21024;-77
2021/06/11 13:26:45;;;;;;;4.28;3.20;;;;;;;18.92;66.88;99005.18;4094725;85;20990;-77
2021/06/11 13:32:47;;;;;;;4.58;3.60;;;;;;;19.10;66.98;99000.63;4107880;84;20972;-78
2021/06/11 13:38:50;;;;;;;7.00;4.00;;;;;;;19.14;66.59;99006.89;4114612;85;21554;-78
2021/06/11 13:44:52;;;;;;;5.40;3.90;;;;;;;19.29;66.57;99001.20;4127032;84;20986;-78
2021/06/11 13:50:55;;;;;;;7.03;3.98;;;;;;;19.51;67.01;98993.30;3989472;86;21116;-79
2021/06/11 13:57:00;;;;;;;8.10;3.65;;;;;;;19.84;66.24;99001.02;4099344;85;21611;-78
2021/06/11 14:03:02;;;;;;;4.72;4.15;;;;;;;20.11;66.41;99004.24;4103294;85;22250;-78
2021/06/11 14:09:04;;;;;;;10.40;3.70;;;;;;;19.97;66.83;99046.30;4099784;85;21006;-77
2021/06/11 14:15:08;;;;;;;5.97;3.80;;;;;;;19.51;67.41;99043.27;4100359;85;21006;-79
2021/06/11 14:21:09;;;;;;;3.85;3.02;;;;;;;19.32;66.79;99043.36;4121699;85;21434;-80
2021/06/11 14:27:13;;;;;;;5.37;2.45;;;;;;;19.24;67.24;99046.09;4091471;85;21132;-78
2021/06/11 14:33:15;;;;;;;3.83;2.20;;;;;;;18.95;66.97;99033.44;4102722;85;21609;-77
2021/06/11 14:39:17;;;;;;;6.20;2.60;;;;;;;18.65;66.82;99042.80;4107530;84;21482;-77
2021/06/11 14:45:19;;;;;;;3.40;2.22;;;;;;;18.45;67.12;99032.91;4094901;85;21042;-78
2021/06/11 14:51:21;;;;;;;4.50;2.50;;;;;;;18.33;67.49;99030.16;4105184;84;21066;-78
2021/06/11 14:57:23;;;;;;;4.78;2.75;;;;;;;18.30;67.88;99019.94;4108354;85;21754;-78
2021/06/11 15:03:29;;;;;;;8.68;2.95;;;;;;;18.39;67.98;99016.61;4063915;85;22198;-79
2021/06/11 15:09:33;;;;;;;6.05;2.62;;;;;;;18.41;68.20;99003.91;4060789;85;21122;-79
2021/06/11 15:15:34;;;;;;;4.78;2.30;;;;;;;18.59;68.53;99002.92;4098774;85;21022;-79
2021/06/11 15:21:35;;;;;;;5.97;2.87;;;;;;;18.79;68.56;98994.59;4085804;86;21053;-79
2021/06/11 15:27:37;;;;;;;6.90;1.95;;;;;;;18.82;68.55;98991.55;4086925;84;21034;-78
2021/06/11 15:33:39;;;;;;;4.72;2.10;;;;;;;18.93;69.04;98990.72;4092115;85;21076;-77
2021/06/11 15:39:43;;;;;;;4.28;2.27;;;;;;;19.06;68.30;98988.22;4091046;86;21097;-77
2021/06/11 15:45:44;;;;;;;4.35;2.35;;;;;;;19.17;68.52;98990.77;4087861;85;21068;-78
2021/06/11 15:51:47;;;;;;;3.45;2.20;;;;;;;19.28;69.15;98987.92;4091778;85;21408;-78
2021/06/11 15:57:48;;;;;;;6.90;2.83;;;;;;;19.27;68.80;98982.78;4088998;85;21034;-78
2021/06/11 16:03:51;;;;;;;4.83;2.40;;;;;;;19.30;69.00;98977.18;4107936;84;21030;-78
2021/06/11 16:09:55;;;;;;;3.42;2.30;;;;;;;19.35;69.04;98977.27;4100399;84;21596;-78
2021/06/11 16:15:56;;;;;;;4.62;2.35;;;;;;;19.31;68.58;98977.34;4102498;85;21589;-78
2021/06/11 16:22:01;;;;;;;2.45;1.82;;;;;;;19.38;68.76;98987.50;4127264;84;21041;-78
2021/06/11 16:28:03;;;;;;;7.83;2.80;;;;;;;19.42;68.41;98988.97;4112050;85;21116;-78
2021/06/11 16:34:08;;;;;;;5.20;3.17;;;;;;;19.42;68.04;98982.66;4109919;85;21064;-77
2021/06/11 16:40:16;;;;;;;8.28;3.67;;;;;;;19.42;68.14;98982.03;4092808;85;21438;-77
2021/06/11 16:46:19;;;;;;;4.72;3.00;;;;;;;19.36;68.34;98976.03;4095758;85;21076;-79
2021/06/11 16:52:20;;;;;;;5.45;3.70;;;;;;;19.32;68.50;98976.75;4093610;84;21103;-78
2021/06/11 16:58:22;;;;;;;8.45;3.83;;;;;;;19.24;68.66;98976.11;3965562;84;10000490;-78
2021/06/11 17:04:23;;;;;;;5.97;3.95;;;;;;;19.21;68.79;98978.37;4083929;85;21150;-78
2021/06/11 17:10:27;;;;;;;6.87;3.75;;;;;;;19.20;68.84;98976.78;4100234;85;21010;-78
2021/06/11 17:16:29;;;;;;;6.92;4.00;;;;;;;19.14;69.30;98974.36;4096703;86;21009;-78
2021/06/11 17:22:45;;;;;;;4.35;3.42;;;;;;;19.13;69.30;98970.63;3997401;86;21084;-76
2021/06/11 17:35:07;;;;;;;15.57;6.90;;;;;;;19.13;69.78;98978.95;4091335;85;21129;-77
2021/06/11 17:41:09;;;;;;;8.27;4.63;;;;;;;19.03;69.93;98982.14;4070145;85;21041;-82
2021/06/11 17:47:11;;;;;;;8.88;6.00;;;;;;;19.06;70.25;98987.45;4087030;86;21110;-78
2021/06/11 17:53:17;;;;;;;8.65;4.08;;;;;;;19.03;70.07;98991.85;4087669;85;21644;-77
2021/06/11 17:59:19;;;;;;;5.00;3.92;;;;;;;18.95;70.35;98986.91;4086325;85;21060;-78
2021/06/11 18:05:21;;;;;;;8.48;6.00;;;;;;;18.88;70.72;98987.06;4079963;85;21383;-77
2021/06/11 18:11:24;;;;;;;12.33;7.67;;;;;;;18.85;70.64;98976.23;4116062;85;21572;-78
2021/06/11 18:17:29;;;;;;;11.50;5.28;;;;;;;18.87;70.88;98981.34;4078987;86;20998;-77
2021/06/11 18:23:31;;;;;;;8.35;6.10;;;;;;;18.87;70.87;98988.28;4079271;86;21087;-78
2021/06/11 18:29:53;;;;;;;10.03;5.45;;;;;;;18.86;71.03;98996.41;4094652;85;21030;-78
2021/06/11 18:35:55;;;;;;;10.98;5.62;;;;;;;18.76;71.29;98993.28;4089614;85;21068;-78
2021/06/11 18:42:02;;;;;;;10.68;5.42;;;;;;;18.63;71.53;98992.56;4086588;85;21072;-78
2021/06/11 18:54:26;;;;;;;13.20;6.33;;;;;;;18.54;71.86;99004.05;4092724;85;21025;-78
2021/06/11 19:00:28;;;;;;;11.03;6.72;;;;;;;18.33;71.74;99000.27;4093199;85;21006;-79
2021/06/11 19:06:30;;;;;;;9.85;6.67;;;;;;;18.20;72.06;99000.13;4112339;85;21052;-78
2021/06/11 19:12:36;;;;;;;10.98;7.70;;;;;;;18.09;72.27;99000.94;4108061;84;21066;-78
2021/06/11 19:18:37;;;;;;;12.10;7.50;;;;;;;18.06;72.45;99005.14;4135730;85;22054;-78
2021/06/11 19:24:46;;;;;;;11.35;7.70;;;;;;;17.94;72.55;99014.88;4102189;84;20953;-78
2021/06/11 19:30:50;;;;;;;10.68;7.28;;;;;;;17.75;72.71;99007.89;4085370;85;21013;-78
2021/06/11 19:36:58;;;;;;;9.93;7.75;;;;;;;17.64;73.11;99012.23;4104237;84;21061;-80
2021/06/11 19:43:04;;;;;;;14.13;8.38;;;;;;;17.57;73.36;99018.50;4119851;84;20985;-78
2021/06/11 19:49:14;;;;;;;9.88;8.68;;;;;;;17.40;73.59;99011.23;4092557;85;21609;-79
2021/06/11 19:55:50;;;;;;;12.15;8.43;;;;;;;17.26;73.90;99012.84;4094121;85;21041;-77
2021/06/11 20:01:51;;;;;;;13.18;8.75;;;;;;;17.08;74.16;99021.40;3987198;84;10000223;-78
2021/06/11 20:07:57;;;;;;;16.42;9.80;;;;;;;16.97;74.43;99022.15;4092673;84;21008;-78
2021/06/11 20:14:00;;;;;;;13.70;8.03;;;;;;;16.85;74.73;99027.63;4097284;85;21511;-78
2021/06/11 20:20:02;;;;;;;11.25;7.30;;;;;;;16.68;74.92;99034.18;4068320;85;21018;-76
2021/06/11 20:26:04;;;;;;;16.65;9.60;;;;;;;16.62;75.25;99030.31;4115428;84;21003;-78
2021/06/11 20:32:07;;;;;;;12.33;9.43;;;;;;;16.58;75.55;99034.32;4092285;85;21064;-78
2021/06/11 20:38:08;;;;;;;11.10;8.00;;;;;;;16.46;75.59;99032.11;4105328;85;21014;-77
2021/06/11 20:44:13;;;;;;;16.97;6.95;;;;;;;16.30;76.12;99030.48;4108286;85;20990;-79
2021/06/11 20:50:22;;;;;;;12.63;9.30;;;;;;;16.38;76.09;99029.21;4090015;85;21055;-78
2021/06/11 20:56:24;;;;;;;11.10;7.37;;;;;;;16.30;76.08;99027.10;4113840;85;22063;-79
2021/06/11 21:02:25;;;;;;;10.65;7.75;;;;;;;16.21;76.39;99021.29;4011976;84;9999812;-78
2021/06/11 21:08:27;;;;;;;10.13;8.25;;;;;;;16.19;76.44;99027.05;4108784;85;21084;-78
2021/06/11 21:14:28;;;;;;;10.90;9.00;;;;;;;16.12;76.36;99028.49;4113512;84;21529;-78
2021/06/11 21:20:34;;;;;;;14.70;9.40;;;;;;;16.04;76.53;99034.69;4108379;85;21087;-78
2021/06/11 21:26:35;;;;;;;12.82;7.35;;;;;;;16.00;76.90;99035.92;4109364;85;21067;-78
2021/06/11 21:32:38;;;;;;;11.10;7.65;;;;;;;16.01;77.09;99034.13;4105065;85;21102;-78
2021/06/11 21:38:40;;;;;;;14.18;7.75;;;;;;;15.96;77.15;99030.43;4107371;84;21092;-77
2021/06/11 21:44:42;;;;;;;16.60;8.85;;;;;;;15.98;77.13;99032.78;4129068;84;21035;-78
2021/06/11 21:50:44;;;;;;;12.88;8.00;;;;;;;16.03;77.13;99034.52;4115661;85;21094;-77
2021/06/11 21:56:46;;;;;;;14.68;9.53;;;;;;;16.08;77.09;99045.70;4089680;85;21062;-78
2021/06/11 22:02:50;;;;;;;15.95;9.73;;;;;;;16.05;77.01;99043.18;4047098;86;21063;-77
2021/06/11 22:08:52;;;;;;;12.75;9.38;;;;;;;15.98;77.03;99040.47;4050307;86;21029;-76
2021/06/11 22:14:53;;;;;;;15.13;10.28;;;;;;;15.92;77.04;99052.37;4052843;86;21034;-77
2021/06/11 22:20:54;;;;;;;14.18;10.38;;;;;;;15.84;77.06;99045.34;4046419;85;21100;-78
2021/06/11 22:26:58;;;;;;;12.60;9.63;;;;;;;15.76;77.10;99047.97;4038981;86;21093;-77
2021/06/11 22:33:05;;;;;;;16.27;10.18;;;;;;;15.52;77.02;99042.26;4049417;86;21549;-77
2021/06/11 22:39:06;;;;;;;14.93;9.68;;;;;;;15.32;77.38;99041.79;4051897;86;21085;-77
2021/06/11 22:45:09;;;;;;;14.55;11.12;;;;;;;15.28;77.63;99039.66;4051332;86;21509;-78
2021/06/11 22:51:10;;;;;;;15.48;10.08;;;;;;;15.02;77.32;99041.00;4048436;86;21585;-78
2021/06/11 22:57:12;;;;;;;11.85;9.48;;;;;;;14.86;78.15;99045.44;4054133;86;21101;-78
2021/06/11 23:03:13;;;;;;;13.85;8.73;;;;;;;14.92;78.32;99046.59;4092857;85;20994;-77
2021/06/11 23:09:15;;;;;;;13.00;9.45;;;;;;;14.97;78.23;99044.18;4096502;85;21570;-77
2021/06/11 23:15:17;;;;;;;14.47;9.20;;;;;;;14.80;78.09;99041.55;4088060;85;21028;-78
2021/06/11 23:21:21;;;;;;;11.43;9.25;;;;;;;14.67;78.20;99044.55;4093883;85;21053;-77
2021/06/11 23:27:22;;;;;;;14.80;9.50;;;;;;;14.49;78.29;99052.08;4085496;85;21536;-77
2021/06/11 23:33:24;;;;;;;13.22;10.78;;;;;;;14.45;78.55;99041.69;4087771;85;21006;-78
2021/06/11 23:39:25;;;;;;;12.95;9.70;;;;;;;14.22;78.51;99037.21;4082310;86;21057;-78
2021/06/11 23:45:27;;;;;;;12.28;10.13;;;;;;;13.98;79.39;99040.21;4094897;85;21061;-77
2021/06/11 23:51:28;;;;;;;13.48;10.43;;;;;;;14.06;79.30;99037.03;4085736;85;21052;-78
2021/06/11 23:57:30;;;;;;;13.65;8.63;;;;;;;14.09;79.21;99037.61;3998065;86;21053;-77
